Time;durP1;ratioP1;P1;durP2;ratioP2;P2;SDS_P1;SDS_P2;PMS_P1;PMS_P2;Temp;Humidity;BMP_temperature;BMP_pressure;BME280_temperature;BME280_humidity;BME280_pressure;Samples;Min_cycle;Max_cycle;Signal;HPM_P1;HPM_P2
2022/06/14 00:00:54;;;;;;;5.37;3.20;;;12.40;99.90;;;;;;5072014;28;20424;-35
2022/06/14 00:03:36;;;;;;;5.70;3.33;;;12.50;99.90;;;;;;5071154;28;20434;-35
2022/06/14 00:06:05;;;;;;;3.20;2.73;;;12.50;99.90;;;;;;5072547;28;20458;-35
2022/06/14 00:08:31;;;;;;;5.80;2.70;;;12.50;99.90;;;;;;5070325;28;21047;-35
2022/06/14 00:11:04;;;;;;;5.33;3.37;;;12.50;99.90;;;;;;5072411;28;20439;-35
2022/06/14 00:13:29;;;;;;;4.20;3.07;;;12.40;99.90;;;;;;5072561;28;20208;-35
2022/06/14 00:15:55;;;;;;;2.87;2.57;;;12.30;99.90;;;;;;5072010;28;20961;-35
2022/06/14 00:18:21;;;;;;;6.17;3.43;;;12.40;99.90;;;;;;5071929;28;20192;-35
2022/06/14 00:20:48;;;;;;;4.33;3.17;;;12.30;99.90;;;;;;5072318;28;20917;-35
2022/06/14 00:23:16;;;;;;;4.70;2.87;;;12.40;99.90;;;;;;5072215;28;20193;-35
2022/06/14 00:25:46;;;;;;;5.60;2.93;;;12.40;99.90;;;;;;5072050;28;20424;-35
2022/06/14 00:28:14;;;;;;;4.10;2.70;;;12.30;99.90;;;;;;5071574;28;20868;-35
2022/06/14 00:30:42;;;;;;;5.63;2.80;;;12.30;99.90;;;;;;5071565;28;20423;-35
2022/06/14 00:33:09;;;;;;;5.57;2.77;;;12.30;99.90;;;;;;5072095;28;20437;-35
2022/06/14 00:35:35;;;;;;;5.60;3.17;;;12.30;99.90;;;;;;5072038;28;20454;-35
2022/06/14 00:38:01;;;;;;;3.40;2.70;;;12.20;99.90;;;;;;5071295;28;20806;-35
2022/06/14 00:40:30;;;;;;;5.20;3.00;;;12.10;99.90;;;;;;5071942;28;20189;-35
2022/06/14 00:42:56;;;;;;;5.83;3.10;;;12.00;99.90;;;;;;5071783;28;20473;-35
2022/06/14 00:45:22;;;;;;;3.50;2.97;;;11.90;99.90;;;;;;5071834;28;20419;-35
2022/06/14 00:47:52;;;;;;;4.77;3.50;;;11.90;99.90;;;;;;5071091;28;20485;-35
2022/06/14 00:50:32;;;;;;;5.63;2.93;;;11.80;99.90;;;;;;5071710;28;20231;-35
2022/06/14 00:53:21;;;;;;;6.40;2.87;;;11.90;99.90;;;;;;5071786;28;20431;-35
2022/06/14 00:55:55;;;;;;;3.53;2.70;;;11.90;99.90;;;;;;5071195;28;20467;-35
2022/06/14 00:58:27;;;;;;;5.57;2.90;;;12.00;99.90;;;;;;5057319;28;20411;-35
2022/06/14 01:01:00;;;;;;;5.30;2.67;;;11.90;99.90;;;;;;5071434;28;20506;-35
2022/06/14 01:03:43;;;;;;;4.43;3.20;;;11.90;99.90;;;;;;5070216;28;20412;-35
2022/06/14 01:06:19;;;;;;;6.70;2.87;;;11.90;99.90;;;;;;5069991;28;20782;-35
2022/06/14 01:08:56;;;;;;;3.23;2.60;;;11.80;99.90;;;;;;5069216;28;20447;-35
2022/06/14 01:11:51;;;;;;;5.37;3.13;;;11.70;99.90;;;;;;5070491;28;20850;-35
2022/06/14 01:14:24;;;;;;;3.73;2.90;;;11.50;99.90;;;;;;5068679;28;20442;-35
2022/06/14 01:16:51;;;;;;;4.13;3.20;;;11.50;99.90;;;;;;5070406;28;20467;-35
2022/06/14 01:19:23;;;;;;;5.00;3.47;;;11.60;99.90;;;;;;5071212;28;20435;-35
2022/06/14 01:22:06;;;;;;;5.10;2.73;;;11.60;99.90;;;;;;5071079;28;20419;-35
2022/06/14 01:24:33;;;;;;;3.23;2.90;;;11.50;99.90;;;;;;5071119;28;20415;-35
2022/06/14 01:26:59;;;;;;;4.93;2.90;;;11.40;99.90;;;;;;5070008;28;20428;-35
2022/06/14 01:29:27;;;;;;;4.00;3.40;;;11.40;99.90;;;;;;5070993;28;20518;-35
2022/06/14 01:31:59;;;;;;;4.23;3.03;;;11.30;99.90;;;;;;5070904;28;20432;-35
2022/06/14 01:34:27;;;;;;;5.83;3.10;;;11.30;99.90;;;;;;5070823;28;20810;-35
2022/06/14 01:36:53;;;;;;;5.00;3.17;;;11.40;99.90;;;;;;5070023;28;20462;-36
2022/06/14 01:39:19;;;;;;;3.17;2.60;;;11.40;99.90;;;;;;5070568;28;20416;-35
2022/06/14 01:41:59;;;;;;;4.97;3.00;;;11.30;99.90;;;;;;5070879;28;20510;-35
2022/06/14 01:45:02;;;;;;;4.60;2.90;;;11.30;99.90;;;;;;5070612;28;21225;-35
2022/06/14 01:47:40;;;;;;;3.80;3.20;;;11.30;99.90;;;;;;5069930;28;21111;-35
2022/06/14 01:54:07;;;;;;;4.97;3.10;;;11.20;99.90;;;;;;5070438;28;20427;-35
2022/06/14 01:56:39;;;;;;;6.87;3.33;;;11.30;99.90;;;;;;5067286;28;20463;-35
2022/06/14 01:59:42;;;;;;;6.30;2.90;;;11.30;99.90;;;;;;5060357;28;20475;-35
2022/06/14 02:02:32;;;;;;;4.20;2.97;;;11.30;99.90;;;;;;5061527;28;20451;-35
2022/06/14 02:05:30;;;;;;;5.97;3.40;;;11.30;99.90;;;;;;5069276;28;20423;-35
2022/06/14 02:08:08;;;;;;;4.53;3.00;;;11.20;99.90;;;;;;5056971;28;20419;-35
2022/06/14 02:10:46;;;;;;;5.10;3.10;;;11.20;99.90;;;;;;5068500;28;20415;-35
2022/06/14 02:13:17;;;;;;;4.77;2.47;;;10.80;99.90;;;;;;5070366;28;20446;-35
2022/06/14 02:16:04;;;;;;;5.10;3.73;;;11.00;99.90;;;;;;5070055;28;20529;-35
2022/06/14 02:18:43;;;;;;;9.03;3.47;;;10.90;99.90;;;;;;5069561;28;20427;-35
2022/06/14 02:21:25;;;;;;;3.30;3.00;;;10.90;99.90;;;;;;5069792;28;20423;-35
2022/06/14 02:24:25;;;;;;;4.50;3.50;;;10.90;99.90;;;;;;5070203;28;20821;-35
2022/06/14 02:27:00;;;;;;;5.23;2.80;;;11.00;99.90;;;;;;5069393;28;20435;-35
2022/06/14 02:29:29;;;;;;;3.93;2.87;;;11.10;99.90;;;;;;5069637;28;20423;-35
2022/06/14 02:32:00;;;;;;;3.53;2.93;;;11.00;99.90;;;;;;5069900;28;20517;-35
2022/06/14 02:34:37;;;;;;;4.07;3.10;;;11.10;99.90;;;;;;5069965;28;20429;-35
2022/06/14 02:37:11;;;;;;;5.57;3.00;;;11.00;99.90;;;;;;5069182;28;20553;-35
2022/06/14 02:39:43;;;;;;;5.13;3.40;;;10.90;99.90;;;;;;5069915;28;20434;-35
2022/06/14 02:42:23;;;;;;;7.93;3.70;;;10.90;99.90;;;;;;5069794;28;20429;-35
2022/06/14 02:45:07;;;;;;;4.77;3.47;;;10.90;99.90;;;;;;5068617;28;20427;-35
2022/06/14 02:47:45;;;;;;;4.73;3.37;;;10.80;99.90;;;;;;5069403;28;20841;-35
2022/06/14 02:50:22;;;;;;;3.77;3.37;;;10.90;99.90;;;;;;5069522;28;20765;-35
2022/06/14 02:52:58;;;;;;;5.70;3.50;;;10.80;99.90;;;;;;5069847;28;20448;-35
2022/06/14 02:55:33;;;;;;;7.93;3.27;;;10.80;99.90;;;;;;5069443;28;20566;-35
2022/06/14 02:57:58;;;;;;;6.87;3.10;;;10.80;99.90;;;;;;5055498;28;20432;-35
2022/06/14 03:00:28;;;;;;;4.10;3.30;;;10.80;99.90;;;;;;5069701;28;20414;-35
2022/06/14 03:03:14;;;;;;;4.80;3.23;;;10.80;99.90;;;;;;5068626;28;20591;-35
2022/06/14 03:05:54;;;;;;;6.17;3.80;;;10.90;99.90;;;;;;5069324;28;20442;-35
2022/06/14 03:08:26;;;;;;;3.70;3.23;;;10.90;99.90;;;;;;5067953;28;20918;-35
2022/06/14 03:10:58;;;;;;;4.50;3.40;;;10.80;99.90;;;;;;5069329;28;20860;-35
2022/06/14 03:13:31;;;;;;;6.27;3.20;;;10.90;99.90;;;;;;5069688;28;20423;-35
2022/06/14 03:16:19;;;;;;;5.87;3.20;;;10.90;99.90;;;;;;5069275;28;20470;-35
2022/06/14 03:19:06;;;;;;;4.30;3.50;;;11.00;99.90;;;;;;5068953;28;20445;-35
2022/06/14 03:21:46;;;;;;;5.37;3.67;;;11.00;99.90;;;;;;5067946;28;20415;-35
2022/06/14 03:24:30;;;;;;;5.17;3.37;;;11.00;99.90;;;;;;5069556;28;20435;-35
2022/06/14 03:27:27;;;;;;;6.90;2.97;;;11.20;99.90;;;;;;5067625;28;20475;-35
2022/06/14 03:30:16;;;;;;;4.03;3.13;;;11.00;99.90;;;;;;5068119;28;20434;-35
2022/06/14 03:33:11;;;;;;;5.00;3.53;;;11.00;99.90;;;;;;5057862;28;20435;-35
2022/06/14 03:35:41;;;;;;;7.00;3.20;;;10.90;99.90;;;;;;5071072;28;20450;-35
2022/06/14 03:38:20;;;;;;;5.97;3.60;;;10.90;99.90;;;;;;5072288;28;20419;-35
2022/06/14 03:40:47;;;;;;;3.93;3.17;;;11.00;99.90;;;;;;5073061;28;20423;-35
2022/06/14 03:43:14;;;;;;;7.30;3.47;;;10.90;99.90;;;;;;5073106;28;20844;-36
2022/06/14 03:45:49;;;;;;;3.67;3.37;;;10.80;99.90;;;;;;5073055;28;20430;-35
2022/06/14 03:48:14;;;;;;;8.20;3.77;;;10.90;99.90;;;;;;5072110;28;20476;-35
2022/06/14 03:51:19;;;;;;;3.97;3.60;;;10.80;99.90;;;;;;5072638;28;20830;-35
2022/06/14 03:53:50;;;;;;;4.73;3.17;;;10.90;99.90;;;;;;5072804;28;20219;-35
2022/06/14 03:57:04;;;;;;;3.70;3.10;;;10.80;99.90;;;;;;5072394;28;20470;-35
2022/06/14 03:59:51;;;;;;;4.80;3.37;;;10.90;99.90;;;;;;5032649;28;20460;-35
2022/06/14 04:02:55;;;;;;;5.47;2.80;;;10.70;99.90;;;;;;5062013;28;20508;-35
2022/06/14 04:05:43;;;;;;;4.80;3.30;;;10.90;99.90;;;;;;5048613;28;20446;-35
2022/06/14 04:08:42;;;;;;;4.33;3.70;;;10.90;99.90;;;;;;5071757;28;20459;-35
2022/06/14 04:11:15;;;;;;;3.57;3.13;;;10.80;99.90;;;;;;5072530;28;20507;-35
2022/06/14 04:13:42;;;;;;;4.97;3.73;;;10.80;99.90;;;;;;5072326;28;20481;-35
2022/06/14 04:16:14;;;;;;;7.10;3.30;;;11.10;99.90;;;;;;5072293;28;20471;-35
2022/06/14 04:18:45;;;;;;;5.83;3.30;;;10.90;99.90;;;;;;5071649;28;20433;-35
2022/06/14 04:21:35;;;;;;;7.20;4.00;;;10.90;99.90;;;;;;5072371;28;20443;-35
2022/06/14 04:24:21;;;;;;;4.47;3.13;;;10.70;99.90;;;;;;5072040;28;20419;-35
2022/06/14 04:27:02;;;;;;;7.50;4.30;;;10.90;99.90;;;;;;5071692;28;20422;-35
2022/06/14 04:30:01;;;;;;;5.13;3.50;;;10.90;99.90;;;;;;5072124;28;20770;-35
2022/06/14 04:32:41;;;;;;;5.47;3.67;;;11.00;99.90;;;;;;5071788;28;20419;-36
2022/06/14 04:35:18;;;;;;;4.77;3.67;;;11.10;99.90;;;;;;5071935;28;20939;-35
2022/06/14 04:38:26;;;;;;;4.03;3.73;;;11.10;99.90;;;;;;5070104;28;20423;-35
2022/06/14 04:40:58;;;;;;;8.10;3.73;;;11.20;99.90;;;;;;5063004;28;20463;-35
2022/06/14 04:43:39;;;;;;;5.50;3.70;;;11.40;99.90;;;;;;5052595;28;20427;-35
2022/06/14 04:46:13;;;;;;;8.50;4.30;;;11.50;99.90;;;;;;5051859;28;21022;-36
2022/06/14 04:48:54;;;;;;;7.33;3.53;;;11.60;99.90;;;;;;5054796;28;20506;-35
2022/06/14 04:51:33;;;;;;;6.60;4.50;;;11.70;99.90;;;;;;5045570;28;21015;-35
2022/06/14 04:54:17;;;;;;;5.70;4.47;;;11.90;99.90;;;;;;5051285;28;20749;-35
2022/06/14 04:56:59;;;;;;;6.97;4.33;;;11.90;99.90;;;;;;5052008;28;21253;-35
2022/06/14 04:59:37;;;;;;;5.40;3.80;;;12.00;99.90;;;;;;5063678;28;20930;-35
2022/06/14 05:02:19;;;;;;;3.60;3.30;;;12.20;99.90;;;;;;5071661;28;20427;-35
2022/06/14 05:04:51;;;;;;;8.40;4.37;;;12.30;99.90;;;;;;5069577;28;20937;-36
2022/06/14 05:07:30;;;;;;;8.37;4.60;;;12.40;99.90;;;;;;5070705;28;20415;-35
2022/06/14 05:10:04;;;;;;;9.30;4.60;;;12.50;99.90;;;;;;5069479;28;20473;-35
2022/06/14 05:12:40;;;;;;;6.57;4.20;;;12.60;99.90;;;;;;5069980;28;20426;-36
2022/06/14 05:15:12;;;;;;;5.87;4.10;;;12.70;99.90;;;;;;5071174;28;20483;-36
2022/06/14 05:17:48;;;;;;;8.37;4.30;;;12.80;99.90;;;;;;5070527;28;20522;-35
2022/06/14 05:20:28;;;;;;;8.10;4.20;;;12.90;99.90;;;;;;5058448;28;20743;-35
2022/06/14 05:23:12;;;;;;;12.00;5.23;;;13.00;99.90;;;;;;5058699;28;20494;-36
2022/06/14 05:26:01;;;;;;;6.47;4.80;;;13.20;99.90;;;;;;5070992;28;20426;-35
2022/06/14 05:28:55;;;;;;;6.50;4.87;;;13.30;99.90;;;;;;5065255;28;20452;-35
2022/06/14 05:31:38;;;;;;;6.53;4.50;;;13.40;99.90;;;;;;5048952;28;20424;-35
2022/06/14 05:34:12;;;;;;;6.30;4.57;;;13.50;99.90;;;;;;5062958;28;20426;-35
2022/06/14 05:37:06;;;;;;;10.27;4.77;;;13.70;99.90;;;;;;5070246;28;20459;-35
2022/06/14 05:39:45;;;;;;;8.80;4.70;;;13.80;99.90;;;;;;5068424;28;20419;-36
2022/06/14 05:42:20;;;;;;;5.13;4.17;;;14.00;99.90;;;;;;5063221;28;20562;-35
2022/06/14 05:44:48;;;;;;;7.40;3.50;;;14.10;99.90;;;;;;5050806;28;20404;-35
2022/06/14 05:47:25;;;;;;;4.40;4.00;;;14.30;99.90;;;;;;5064447;28;20435;-36
2022/06/14 05:49:58;;;;;;;5.30;3.90;;;14.40;99.90;;;;;;5055178;28;20637;-35
2022/06/14 05:52:41;;;;;;;6.53;4.47;;;14.50;99.90;;;;;;5053362;28;20412;-36
2022/06/14 05:55:17;;;;;;;6.27;4.07;;;14.50;99.90;;;;;;5064484;28;20444;-35
2022/06/14 05:57:48;;;;;;;9.60;5.10;;;14.70;99.90;;;;;;5048830;28;20502;-36
2022/06/14 06:00:23;;;;;;;5.67;4.40;;;14.70;99.90;;;;;;5051659;28;20408;-36
2022/06/14 06:03:29;;;;;;;6.43;4.80;;;14.70;99.90;;;;;;5061953;28;20449;-36
2022/06/14 06:06:06;;;;;;;8.10;3.90;;;14.90;99.90;;;;;;5046780;28;20519;-36
2022/06/14 06:08:42;;;;;;;6.60;3.43;;;15.00;99.90;;;;;;5045009;28;20905;-36
2022/06/14 06:11:17;;;;;;;7.17;3.93;;;15.20;99.90;;;;;;5060765;28;20529;-35
2022/06/14 06:14:00;;;;;;;8.13;3.50;;;15.30;99.90;;;;;;5069560;28;20407;-36
2022/06/14 06:19:55;;;;;;;9.33;3.30;;;15.70;99.90;;;;;;5048032;28;20796;-35
2022/06/14 06:22:36;;;;;;;8.13;3.53;;;15.70;99.90;;;;;;5048867;28;20511;-36
2022/06/14 06:25:10;;;;;;;7.00;3.47;;;15.70;99.90;;;;;;5048778;28;20424;-35
2022/06/14 06:27:54;;;;;;;7.80;3.40;;;15.70;99.90;;;;;;5047174;28;20424;-36
2022/06/14 06:30:25;;;;;;;6.30;3.80;;;15.90;99.90;;;;;;5048479;28;20415;-36
2022/06/14 06:32:51;;;;;;;5.67;3.37;;;16.20;99.90;;;;;;5047759;28;20420;-35
2022/06/14 06:35:17;;;;;;;12.10;3.93;;;16.30;99.90;;;;;;5048647;28;20428;-36
2022/06/14 06:37:46;;;;;;;6.93;3.43;;;16.40;99.90;;;;;;5056411;28;20430;-36
2022/06/14 06:40:20;;;;;;;7.50;3.30;;;16.40;99.90;;;;;;5069154;28;20422;-35
2022/06/14 06:42:58;;;;;;;9.40;4.33;;;16.50;99.90;;;;;;5068972;28;20422;-36
2022/06/14 06:45:27;;;;;;;9.07;3.30;;;16.70;99.90;;;;;;5068954;28;20423;-36
2022/06/14 06:47:53;;;;;;;5.33;2.90;;;16.80;99.90;;;;;;5068199;28;20419;-36
2022/06/14 06:50:29;;;;;;;7.00;3.33;;;16.80;99.90;;;;;;5064212;28;20408;-35
2022/06/14 06:53:20;;;;;;;8.50;2.90;;;16.70;99.90;;;;;;5048702;28;20181;-35
2022/06/14 06:55:49;;;;;;;11.17;3.50;;;16.60;99.90;;;;;;5010249;28;1117701;-36
2022/06/14 06:58:26;;;;;;;10.30;3.73;;;16.60;99.90;;;;;;5051466;28;20434;-36
2022/06/14 07:00:56;;;;;;;5.53;3.20;;;16.50;99.90;;;;;;5069727;28;20411;-36
2022/06/14 07:03:45;;;;;;;6.13;3.60;;;16.50;99.90;;;;;;5063488;28;20502;-35
2022/06/14 07:06:35;;;;;;;9.07;3.60;;;16.50;99.90;;;;;;5053446;28;20945;-36
2022/06/14 07:09:13;;;;;;;7.13;3.37;;;16.50;99.90;;;;;;5038522;28;20432;-35
2022/06/14 07:11:45;;;;;;;8.40;4.30;;;16.60;99.90;;;;;;5058536;28;20453;-36
2022/06/14 07:14:24;;;;;;;6.40;3.33;;;16.80;99.90;;;;;;5053575;28;20416;-36
2022/06/14 07:17:01;;;;;;;5.40;2.93;;;16.90;99.90;;;;;;5050848;28;20901;-36
2022/06/14 07:19:33;;;;;;;6.57;3.73;;;17.10;99.90;;;;;;5059396;28;20423;-36
2022/06/14 07:22:15;;;;;;;6.40;2.93;;;17.30;99.90;;;;;;5054527;28;20501;-35
2022/06/14 07:24:58;;;;;;;10.00;4.30;;;17.30;99.90;;;;;;5053549;28;20431;-35
2022/06/14 07:27:29;;;;;;;6.27;3.63;;;17.30;99.90;;;;;;5052585;28;20922;-36
2022/06/14 07:29:58;;;;;;;10.27;3.80;;;17.40;99.90;;;;;;5052988;28;20413;-35
2022/06/14 07:32:37;;;;;;;5.30;3.50;;;17.40;99.90;;;;;;5055871;28;20422;-36
2022/06/14 07:35:03;;;;;;;5.47;3.63;;;17.30;99.90;;;;;;5073034;28;20419;-36
2022/06/14 07:37:52;;;;;;;5.37;3.80;;;17.20;99.90;;;;;;5072045;28;20470;-36
2022/06/14 07:40:32;;;;;;;8.67;4.30;;;17.20;99.90;;;;;;5072652;28;20843;-36
2022/06/14 07:43:08;;;;;;;9.43;3.43;;;17.30;99.90;;;;;;5072985;28;20407;-36
2022/06/14 07:45:36;;;;;;;9.03;3.47;;;17.40;99.90;;;;;;5056639;28;20472;-36
2022/06/14 07:48:08;;;;;;;6.33;4.10;;;17.60;99.90;;;;;;5054243;28;20867;-36
2022/06/14 07:50:46;;;;;;;9.03;4.43;;;17.70;99.90;;;;;;5069482;28;20731;-36
2022/06/14 07:53:15;;;;;;;6.17;3.90;;;17.80;99.90;;;;;;5072196;28;20808;-35
2022/06/14 07:55:59;;;;;;;4.53;3.50;;;17.90;99.90;;;;;;5072052;28;20915;-36
2022/06/14 07:58:44;;;;;;;9.33;4.60;;;17.90;99.90;;;;;;5057853;28;20415;-35
2022/06/14 08:01:16;;;;;;;7.00;3.60;;;17.70;99.90;;;;;;5065732;28;20416;-36
2022/06/14 08:03:48;;;;;;;9.90;4.00;;;17.60;99.90;;;;;;5071116;28;20731;-35
2022/06/14 08:06:20;;;;;;;12.33;4.07;;;17.60;99.90;;;;;;5072223;28;20426;-36
2022/06/14 08:08:53;;;;;;;5.03;4.23;;;17.50;99.90;;;;;;5069956;28;20423;-36
2022/06/14 08:11:30;;;;;;;8.73;5.30;;;17.50;99.90;;;;;;5053804;28;20431;-36
2022/06/14 08:14:01;;;;;;;10.57;4.77;;;17.30;99.90;;;;;;5054744;28;20515;-36
2022/06/14 08:16:28;;;;;;;6.80;4.07;;;17.10;99.90;;;;;;5070836;28;20512;-36
2022/06/14 08:19:10;;;;;;;7.67;5.27;;;17.10;99.90;;;;;;5071535;28;20481;-36
2022/06/14 08:21:40;;;;;;;8.97;5.20;;;17.10;99.90;;;;;;5071752;28;20798;-36
2022/06/14 08:24:15;;;;;;;8.10;4.70;;;17.10;99.90;;;;;;5070865;28;20897;-35
2022/06/14 08:26:54;;;;;;;6.80;4.50;;;17.10;99.90;;;;;;5071316;28;20415;-36
2022/06/14 08:29:32;;;;;;;6.57;4.63;;;17.20;99.90;;;;;;5072047;28;20493;-36
2022/06/14 08:32:08;;;;;;;7.87;4.87;;;17.40;99.90;;;;;;5071819;28;20506;-36
2022/06/14 08:34:45;;;;;;;7.97;3.87;;;17.50;99.90;;;;;;5070805;28;20440;-36
2022/06/14 08:37:33;;;;;;;6.20;4.30;;;17.50;99.90;;;;;;5071361;28;20461;-36
2022/06/14 08:40:31;;;;;;;7.43;4.67;;;17.60;99.90;;;;;;5071966;28;20514;-36
2022/06/14 08:43:05;;;;;;;9.87;3.23;;;17.80;99.90;;;;;;5072116;28;20451;-36
2022/06/14 08:45:39;;;;;;;5.67;3.40;;;18.10;99.90;;;;;;5071852;28;20476;-36
2022/06/14 08:48:17;;;;;;;6.40;3.63;;;18.20;99.90;;;;;;5071229;28;20399;-36
2022/06/14 08:51:12;;;;;;;7.50;3.73;;;18.20;99.90;;;;;;5071345;28;20415;-36
2022/06/14 08:53:57;;;;;;;6.20;3.47;;;18.20;99.90;;;;;;5071729;28;20423;-36
2022/06/14 08:56:44;;;;;;;5.83;3.90;;;18.10;99.90;;;;;;5070673;28;20813;-36
2022/06/14 08:59:40;;;;;;;8.10;3.77;;;18.10;99.90;;;;;;5061802;28;21133;-36
2022/06/14 09:02:24;;;;;;;8.37;4.40;;;18.20;99.90;;;;;;5071553;28;20403;-36
2022/06/14 09:05:09;;;;;;;6.47;3.70;;;18.20;99.90;;;;;;5070500;28;20470;-35
2022/06/14 09:07:40;;;;;;;8.70;4.17;;;18.40;99.90;;;;;;5070857;28;20497;-36
2022/06/14 09:10:28;;;;;;;5.60;4.00;;;18.60;99.90;;;;;;5070686;28;20766;-36
2022/06/14 09:13:03;;;;;;;5.20;4.37;;;18.90;99.90;;;;;;5071311;28;20443;-36
2022/06/14 09:15:47;;;;;;;6.70;4.00;;;19.00;99.40;;;;;;5071056;28;20560;-36
2022/06/14 09:18:45;;;;;;;4.97;3.57;;;19.10;98.40;;;;;;5069405;28;20419;-36
2022/06/14 09:21:44;;;;;;;5.83;4.90;;;19.20;98.00;;;;;;5062281;28;20484;-36
2022/06/14 09:24:21;;;;;;;5.40;3.77;;;19.40;99.40;;;;;;5071371;28;20407;-36
2022/06/14 09:27:14;;;;;;;4.13;3.60;;;19.50;98.20;;;;;;5070347;28;20498;-36
2022/06/14 09:29:48;;;;;;;5.23;3.90;;;19.50;96.60;;;;;;5071213;28;20414;-36
2022/06/14 09:36:02;;;;;;;7.93;3.93;;;19.80;98.60;;;;;;5070905;28;20423;-36
2022/06/14 09:38:49;;;;;;;6.73;4.00;;;19.90;97.30;;;;;;5070175;28;20497;-36
2022/06/14 09:41:24;;;;;;;5.37;3.40;;;19.70;97.40;;;;;;5070602;28;21112;-36
2022/06/14 09:44:09;;;;;;;7.30;3.73;;;19.40;97.20;;;;;;5070792;28;20415;-36
2022/06/14 09:46:54;;;;;;;4.83;3.17;;;19.20;96.50;;;;;;5070056;28;20457;-36
2022/06/14 09:49:34;;;;;;;6.47;3.83;;;19.00;96.60;;;;;;5070563;28;20422;-36
2022/06/14 09:52:45;;;;;;;6.87;4.30;;;18.70;97.20;;;;;;5070486;28;20518;-36
2022/06/14 09:55:58;;;;;;;5.50;3.50;;;18.80;97.70;;;;;;5047482;28;20443;-36
2022/06/14 09:59:01;;;;;;;6.70;3.30;;;19.10;98.90;;;;;;5056359;28;20435;-36
2022/06/14 10:01:48;;;;;;;7.20;4.80;;;19.50;99.90;;;;;;5047259;28;20442;-36
2022/06/14 10:04:32;;;;;;;7.20;4.83;;;19.80;98.50;;;;;;5068097;28;20477;-36
2022/06/14 10:07:26;;;;;;;10.40;4.20;;;20.00;97.70;;;;;;5069690;28;20503;-36
2022/06/14 10:10:09;;;;;;;5.93;4.07;;;20.20;98.70;;;;;;5069225;28;20430;-36
2022/06/14 10:13:10;;;;;;;6.67;3.70;;;20.40;97.80;;;;;;5070269;28;20423;-36
2022/06/14 10:16:07;;;;;;;6.20;4.37;;;20.50;96.60;;;;;;5069878;28;20761;-36
2022/06/14 10:19:01;;;;;;;8.10;4.63;;;20.50;95.90;;;;;;5060881;28;20435;-36
2022/06/14 10:21:36;;;;;;;6.87;4.20;;;20.60;95.40;;;;;;5070095;28;20404;-36
2022/06/14 10:24:12;;;;;;;5.77;4.50;;;20.70;96.70;;;;;;5070146;28;20513;-36
2022/06/14 10:29:46;;;;;;;7.20;4.50;;;20.80;98.00;;;;;;5070025;28;20423;-36
2022/06/14 10:32:47;;;;;;;10.07;5.37;;;20.80;97.30;;;;;;5069771;28;20515;-36
2022/06/14 10:35:16;;;;;;;7.70;4.50;;;20.70;96.50;;;;;;5058263;28;21122;-36
2022/06/14 10:37:53;;;;;;;6.97;5.43;;;20.50;96.80;;;;;;5069234;28;20490;-36
2022/06/14 10:40:28;;;;;;;7.03;4.83;;;20.50;96.90;;;;;;5068715;28;20518;-36
2022/06/14 10:43:03;;;;;;;5.47;4.77;;;20.60;96.70;;;;;;5069842;28;20427;-36
2022/06/14 10:45:57;;;;;;;6.20;4.97;;;20.80;97.00;;;;;;5067545;28;20514;-36
2022/06/14 10:48:45;;;;;;;8.47;6.00;;;20.80;96.40;;;;;;5066651;28;20435;-36
2022/06/14 10:51:26;;;;;;;8.70;5.40;;;20.80;95.80;;;;;;5069829;28;20431;-36
2022/06/14 10:54:04;;;;;;;7.00;4.50;;;20.70;95.60;;;;;;5068387;28;20420;-36
2022/06/14 10:57:13;;;;;;;7.53;5.10;;;20.40;96.20;;;;;;5067511;28;20467;-36
2022/06/14 10:59:51;;;;;;;7.43;5.60;;;20.30;96.50;;;;;;5048892;28;21191;-36
2022/06/14 11:03:01;;;;;;;8.37;5.77;;;20.20;96.90;;;;;;5069864;28;20411;-36
2022/06/14 11:05:51;;;;;;;5.17;4.67;;;20.40;97.00;;;;;;5041877;28;20873;-36
2022/06/14 11:08:17;;;;;;;7.17;5.00;;;20.50;95.40;;;;;;5068810;28;20970;-36
2022/06/14 11:11:14;;;;;;;6.50;4.67;;;20.70;97.10;;;;;;5069830;28;20461;-36
2022/06/14 11:13:46;;;;;;;4.80;4.20;;;20.90;96.10;;;;;;5069741;28;20177;-36
2022/06/14 11:16:31;;;;;;;9.50;5.30;;;20.90;94.80;;;;;;5069545;28;20451;-36
2022/06/14 11:19:03;;;;;;;10.23;5.13;;;20.80;95.40;;;;;;5069331;28;20408;-36
2022/06/14 11:21:54;;;;;;;9.77;5.90;;;20.80;95.70;;;;;;5069746;28;20834;-36
2022/06/14 11:24:30;;;;;;;8.13;6.00;;;20.80;96.80;;;;;;5069503;28;20419;-36
2022/06/14 11:27:17;;;;;;;7.23;4.43;;;20.90;96.90;;;;;;5067396;28;20554;-36
2022/06/14 11:30:06;;;;;;;7.67;6.23;;;21.10;97.20;;;;;;5069622;28;20434;-36
2022/06/14 11:33:01;;;;;;;9.17;6.50;;;21.30;96.80;;;;;;5069447;28;20422;-36
2022/06/14 11:35:30;;;;;;;9.70;5.90;;;21.30;96.20;;;;;;5069101;28;20418;-36
2022/06/14 11:38:04;;;;;;;7.33;5.00;;;21.40;96.10;;;;;;5068669;28;20484;-36
2022/06/14 11:40:33;;;;;;;7.30;5.40;;;21.50;95.30;;;;;;5069291;28;20437;-36
2022/06/14 11:43:15;;;;;;;8.60;5.10;;;21.40;95.80;;;;;;5069241;28;20419;-37
2022/06/14 11:45:57;;;;;;;8.60;6.50;;;21.50;95.80;;;;;;5069034;28;20417;-36
2022/06/14 11:48:38;;;;;;;9.07;6.03;;;21.60;95.10;;;;;;5068633;28;20464;-36
2022/06/14 11:51:13;;;;;;;6.97;5.40;;;21.70;95.50;;;;;;5069264;28;20418;-36
2022/06/14 11:53:58;;;;;;;10.93;5.67;;;21.70;95.60;;;;;;5068002;28;20426;-36
2022/06/14 11:56:30;;;;;;;6.47;5.87;;;21.80;96.00;;;;;;5069329;28;20574;-36
2022/06/14 11:59:25;;;;;;;7.80;6.00;;;21.90;94.20;;;;;;5061067;28;20945;-36
2022/06/14 12:02:05;;;;;;;6.33;5.70;;;21.80;95.10;;;;;;5072584;28;20446;-36
2022/06/14 12:04:34;;;;;;;6.03;5.20;;;21.90;93.80;;;;;;5070653;28;20481;-36
2022/06/14 12:07:23;;;;;;;6.23;5.37;;;21.70;93.70;;;;;;5072032;28;20425;-36
2022/06/14 12:10:13;;;;;;;6.70;5.53;;;21.70;94.30;;;;;;5070438;28;20462;-36
2022/06/14 12:13:11;;;;;;;10.07;5.53;;;21.70;95.10;;;;;;5072219;28;20424;-36
2022/06/14 12:15:52;;;;;;;5.67;4.60;;;21.70;93.20;;;;;;5063606;28;20435;-36
2022/06/14 12:18:23;;;;;;;6.27;5.23;;;21.80;94.50;;;;;;5071715;28;20469;-36
2022/06/14 12:21:16;;;;;;;9.13;5.90;;;21.90;94.90;;;;;;5072426;28;20450;-36
2022/06/14 12:23:53;;;;;;;6.70;5.40;;;22.00;95.40;;;;;;5072311;28;20423;-36
2022/06/14 12:26:36;;;;;;;6.13;5.10;;;21.90;94.30;;;;;;5072080;28;20446;-36
2022/06/14 12:29:23;;;;;;;8.77;5.60;;;22.00;95.50;;;;;;5072078;28;20419;-36
2022/06/14 12:32:12;;;;;;;7.80;5.60;;;22.00;93.80;;;;;;5072064;28;20415;-36
2022/06/14 12:35:07;;;;;;;8.63;5.53;;;22.10;95.70;;;;;;5072320;28;20423;-36
2022/06/14 12:37:39;;;;;;;7.00;5.40;;;22.00;95.40;;;;;;5071108;28;20512;-36
2022/06/14 12:40:11;;;;;;;6.20;5.60;;;22.10;93.80;;;;;;5072118;28;20498;-36
2022/06/14 12:42:58;;;;;;;8.70;5.50;;;22.10;93.60;;;;;;5070467;28;20423;-36
2022/06/14 12:45:34;;;;;;;6.77;4.53;;;22.00;92.80;;;;;;5071912;28;20430;-36
2022/06/14 12:48:03;;;;;;;8.33;4.80;;;22.10;94.70;;;;;;5054243;28;20447;-36
2022/06/14 12:50:38;;;;;;;11.43;5.43;;;22.10;92.10;;;;;;5071770;28;20431;-36
2022/06/14 12:53:39;;;;;;;8.47;5.50;;;22.00;90.60;;;;;;5071679;28;20510;-36
2022/06/14 12:56:18;;;;;;;7.27;5.00;;;22.00;90.70;;;;;;5071520;28;20466;-36
2022/06/14 12:59:08;;;;;;;6.10;4.97;;;21.80;90.90;;;;;;5044838;28;20454;-36
2022/06/14 13:01:44;;;;;;;6.70;5.07;;;21.90;93.00;;;;;;5071470;28;20798;-36
2022/06/14 13:04:13;;;;;;;9.03;4.87;;;21.90;92.90;;;;;;5070997;28;20415;-36
2022/06/14 13:07:00;;;;;;;11.47;5.80;;;21.90;92.80;;;;;;5069556;28;20906;-36
2022/06/14 13:10:03;;;;;;;6.20;4.93;;;21.90;91.20;;;;;;5069020;28;20434;-36
2022/06/14 13:12:31;;;;;;;6.60;4.63;;;21.80;91.20;;;;;;5071192;28;20427;-36
2022/06/14 13:15:25;;;;;;;7.97;4.17;;;21.90;92.90;;;;;;5071535;28;20423;-36
2022/06/14 13:18:13;;;;;;;5.53;4.93;;;22.10;91.70;;;;;;5069167;28;20993;-36
2022/06/14 13:20:45;;;;;;;9.70;5.60;;;22.20;90.10;;;;;;5071274;28;20469;-36
2022/06/14 13:23:23;;;;;;;5.93;5.23;;;22.10;90.10;;;;;;5071156;28;20451;-36
2022/06/14 13:26:10;;;;;;;6.47;4.73;;;22.00;90.20;;;;;;5071422;28;20419;-36
2022/06/14 13:28:57;;;;;;;5.77;5.20;;;21.90;89.70;;;;;;5070511;28;20471;-36
2022/06/14 13:31:36;;;;;;;5.43;4.73;;;22.00;90.10;;;;;;5071089;28;20421;-36
2022/06/14 13:34:24;;;;;;;7.27;4.93;;;22.00;90.80;;;;;;5069418;28;20755;-36
2022/06/14 13:37:05;;;;;;;6.13;4.73;;;22.00;88.50;;;;;;5070090;28;20470;-37
2022/06/14 13:39:49;;;;;;;7.73;4.70;;;22.00;92.30;;;;;;5071041;28;20747;-36
2022/06/14 13:42:30;;;;;;;10.63;5.63;;;22.00;90.20;;;;;;5070567;28;20863;-36
2022/06/14 13:45:11;;;;;;;5.63;5.07;;;22.10;89.60;;;;;;5070667;28;20434;-36
2022/06/14 13:47:45;;;;;;;9.20;4.17;;;22.20;92.30;;;;;;5068809;28;20958;-36
2022/06/14 13:50:26;;;;;;;6.63;5.10;;;22.20;91.00;;;;;;5070585;28;20496;-36
2022/06/14 13:52:57;;;;;;;8.80;5.20;;;22.20;90.20;;;;;;5070623;28;20419;-36
2022/06/14 13:55:45;;;;;;;9.23;5.10;;;22.30;91.50;;;;;;5070707;28;20521;-36
2022/06/14 13:58:26;;;;;;;7.70;4.90;;;22.40;91.30;;;;;;5056257;28;20431;-36
2022/06/14 14:01:11;;;;;;;7.03;4.87;;;22.40;90.80;;;;;;5070758;28;20477;-36
2022/06/14 14:04:05;;;;;;;7.87;4.90;;;22.50;91.20;;;;;;5069405;28;20411;-36